WetterOnline ( http://www.wetteronline.de )

Wetter aktuell Messina

Aktuelles Wetter: Messina (51m)

6-stündlich | Neueste Meldungen
Ortszeit Temperatur Wetter
Mi, 21.11. 7:00 16.6° C leicht bewölkt
Mi, 21.11. 1:00 17.4° C wolkig
Di, 20.11. 19:00 19.0° C bewölkt
Di, 20.11. 13:00 20.4° C bewölkt
Di, 20.11. 7:00 19.6° C bedeckt
Di, 20.11. 1:00 19.4° C bedeckt
Mo, 19.11. 19:00 19.2° C bedeckt
Mo, 19.11. 13:00 17.8° C Regen
Ortszeit Temperatur Wetter
Mi, 21.11. 10:00 18.2° C leicht bewölkt
Mi, 21.11. 9:55 18° C leicht bewölkt
Mi, 21.11. 9:00 18.0° C wolkig
Mi, 21.11. 8:55 18° C bewölkt
Mi, 21.11. 8:00 16.8° C leicht bewölkt
Mi, 21.11. 7:55 17° C leicht bewölkt
Mi, 21.11. 7:00 16.6° C leicht bewölkt
Mi, 21.11. 6:55 17° C leicht bewölkt
Mi, 21.11. 6:00 16.4° C leicht bewölkt
Ortszeit Relative Feuchte Sichtweite
Mi, 21.11. 7:00 69% 15 km
Mi, 21.11. 1:00 60% 12 km
Di, 20.11. 19:00 73% 10 km
Di, 20.11. 13:00 69% 10 km
Di, 20.11. 7:00 77% 6 km
Di, 20.11. 1:00 82% 10 km
Mo, 19.11. 19:00 79% 10 km
Mo, 19.11. 13:00 75% 4 km
Ortszeit Relative Feuchte Sichtweite
Mi, 21.11. 10:00 60% 10 km
Mi, 21.11. 9:55 60% >10 km
Mi, 21.11. 9:00 64% 10 km
Mi, 21.11. 8:55 64% >10 km
Mi, 21.11. 8:00 68% 10 km
Mi, 21.11. 7:55 68% >10 km
Mi, 21.11. 7:00 69% 15 km
Mi, 21.11. 6:55 68% >10 km
Mi, 21.11. 6:00 68% 10 km
Ortszeit Niederschlagsmenge Niederschlagsart
Mi, 21.11. 7:00 0.0 l/m2 in 12 Std. -
Mi, 21.11. 1:00 0.0 l/m2 in 6 Std. -
Di, 20.11. 19:00 0.2 l/m2 in 12 Std. -
Di, 20.11. 13:00 0.2 l/m2 in 6 Std. Regen
Di, 20.11. 7:00 16 l/m2 in 12 Std. Regenschauer
Di, 20.11. 1:00 0.0 l/m2 in 6 Std. -
Mo, 19.11. 19:00 8 l/m2 in 12 Std. Gewitter, Regen
Mo, 19.11. 13:00 1 l/m2 in 6 Std. Regen
Ortszeit Niederschlagsmenge Niederschlagsart
Mi, 21.11. 10:00 keine Meldung -
Mi, 21.11. 9:55 keine Meldung -
Mi, 21.11. 9:00 keine Meldung -
Mi, 21.11. 8:55 keine Meldung -
Mi, 21.11. 8:00 keine Meldung -
Mi, 21.11. 7:55 keine Meldung -
Mi, 21.11. 7:00 keine Meldung -
Mi, 21.11. 6:55 keine Meldung -
Mi, 21.11. 6:00 keine Meldung -
Ortszeit Stärke Spitze Richtung
km/h Bft. km/h Grad Sektor
Mi, 21.11. 7:00 9 2 - 330° NW
Mi, 21.11. 1:00 9 2 - 300° NW
Di, 20.11. 19:00 6 1 - 200° S
Di, 20.11. 13:00 22 4 - 210° SW
Di, 20.11. 7:00 24 4 - 200° S
Di, 20.11. 1:00 22 4 - 210° SW
Mo, 19.11. 19:00 30 5 - 200° S
Mo, 19.11. 13:00 30 5 - 200° S
Ortszeit Stärke Spitze Richtung
km/h Bft. km/h Grad Sektor
Mi, 21.11. 10:00 9 2 - 10° N
Mi, 21.11. 9:55 9 2 - 10° N
Mi, 21.11. 9:00 4 1 - 60° NO
Mi, 21.11. 8:55 4 1 - 60° NO
Mi, 21.11. 8:00 4 1 - 10° N
Mi, 21.11. 7:55 4 1 - 10° N
Mi, 21.11. 7:00 9 2 - 330° NW
Mi, 21.11. 6:55 9 2 - 330° NW
Mi, 21.11. 6:00 6 1 - uml. uml.
Ortszeit Untergrenze Bedeckung Gattung
total tief tief mittel hoch
Mi, 21.11. 7:00 600 m 4/8 4/8 Cu - -
Mi, 21.11. 1:00 450 m 5/8 4/8 Cu As -
Di, 20.11. 19:00 450 m 7/8 4/8 Sc As -
Di, 20.11. 13:00 450 m 7/8 4/8 Sc Ns -
Di, 20.11. 7:00 360 m 8/8 6/8 Cu Ns -
Di, 20.11. 1:00 450 m 8/8 6/8 Cu Ns -
Mo, 19.11. 19:00 450 m 8/8 5/8 Cu As -
Mo, 19.11. 13:00 300 m 7/8 4/8 Cb As Cs
Ortszeit Bedeckungsgrad in Achtel und Wolkenuntergrenze
Mi, 21.11. 10:00 4(1050m)
Mi, 21.11. 9:55 3-4(1050m)
Mi, 21.11. 9:00 5(900m)
Mi, 21.11. 8:55 5-7(900m)
Mi, 21.11. 8:00 1(600m) 3(900m)
Mi, 21.11. 7:55 1-2(600m) 3-4(900m)
Mi, 21.11. 7:00 1(600m) 3(900m)
Mi, 21.11. 6:55 1-2(600m) 3-4(900m)
Mi, 21.11. 6:00 1(450m) 3(600m)
Ortszeit Luftdruck NN (hPa) Tendenz (hPa in 3 Std.)
Mi, 21.11. 7:00 1014 + 1,9
Mi, 21.11. 1:00 1011 + 2,3
Di, 20.11. 19:00 1006 + 0,8
Di, 20.11. 13:00 1006 - 0,2
Di, 20.11. 7:00 1004 - 1,0
Di, 20.11. 1:00 1006 + 0,6
Mo, 19.11. 19:00 1006 - 0,4
Mo, 19.11. 13:00 1007 - 1,8
Ortszeit Luftdruck NN (hPa) Tendenz (hPa in 3 Std.)
Mi, 21.11. 10:00 1015 + 1,7
Mi, 21.11. 9:55 1015 keine Meldung
Mi, 21.11. 9:00 1015 + 1,2
Mi, 21.11. 8:55 1014 keine Meldung
Mi, 21.11. 8:00 1014 + 2,1
Mi, 21.11. 7:55 1014 keine Meldung
Mi, 21.11. 7:00 1014 + 1,9
Mi, 21.11. 6:55 1013 keine Meldung
Mi, 21.11. 6:00 1013 + 1,8
Ortszeit Schneehöhe (cm)
Mi, 21.11. 7:00 0
Mi, 21.11. 1:00 -
Di, 20.11. 19:00 -
Di, 20.11. 13:00 -
Di, 20.11. 7:00 0
Di, 20.11. 1:00 -
Mo, 19.11. 19:00 -
Mo, 19.11. 13:00 -
Ortszeit Schneehöhe (cm)
Mi, 21.11. 10:00 -
Mi, 21.11. 9:55 -
Mi, 21.11. 9:00 -
Mi, 21.11. 8:55 -
Mi, 21.11. 8:00 -
Mi, 21.11. 7:55 -
Mi, 21.11. 7:00 0
Mi, 21.11. 6:55 -
Mi, 21.11. 6:00 -
Link zu dieser Seite / Seite empfehlen

Das Wetter in ...